Skanderborg, Denmark
Current Conditions -  °F | °C
As of 5:50 PM on Saturday 20 Dec 2014 (Local Time) from EKAH Reporting Station
Clear Clear  
Wind Chill: 30°   Ceiling: Unl
Heat Index: 39°   Visibility: 6mi
Dew Point: 30°   Wind: 16mph
Humidity: 70%   Direction: 300°WNW
Pressure: 29.53"   Gusts: NA
Location:  56.04°N, 9.93°E
Report Text: EKAH 201650Z AUTO 30014KT 9999NDV NCD 04/M01 Q1000
Loading
Personal Weather Stations






























Interactive Weather Map New forecast layout! Learn more

10-Day Weather Forecast

Advertisements
Track Severe Weather on mobile